Port Columbus International Airport Columbus US
ICAO: KCMH
IATA: CMH
Category: Large
Scheduled Services: Yes

Elevation: 815 ft
TransAlt. 18000 ft.

Airport Communications:
COLUMBUS APP/DEP:33.822
COLUMBUS APP/DEP:118.2
ATIS:124.6
CLNC DEL:126.3
GND:121.9
DAYTON RDO:122.2
TWR:132.7
UNICOM:122.95

KCMH Zoom In..

Runways:

(A) RW 10L length 8000 ft width 150 ft
ILS 109.10 / hdg 101

(B) RW 10R length 10113 ft width 150 ft
ILS 111.75 / hdg 101

(C) RW 28L length 10113 ft width 150 ft
ILS 111.75 / hdg 281

(D) RW 28R length 8000 ft width 150 ft
ILS 109.10 / hdg 281

Location; KCMH
Day. 19 / Time. 20.51 Zulu
* Altimeter: 30.00
* Temperature: 29° c. 84.2°f.
* Wind from: 070° Speed 06 kn.
Dewpoint: 12° c.
Visibility: 10 Statute Miles.
Clouds: Broken 25000 ft.

KCMH 192051Z 07006KT 10SM BKN250 29/12 A3000 RMK AO2 SLP153 T02890117 56014


Wind From 070°
Speed 06 kn.

 
 
jpsmedia.com for Web Design worldairports.se 2018   terms of use